createdAt,value
2018-01-04T00:00:10.907Z,64.81
2018-01-04T00:02:39.512Z,63.90
2018-01-04T00:05:07.278Z,64.24
2018-01-04T00:07:35.551Z,63.10
2018-01-04T00:10:03.305Z,63.81
2018-01-04T00:12:31.072Z,64.00
2018-01-04T00:14:58.911Z,63.80
2018-01-04T00:17:26.715Z,62.60
2018-01-04T00:19:54.370Z,62.73
2018-01-04T00:22:21.975Z,62.39
2018-01-04T00:24:49.669Z,63.16
2018-01-04T00:27:18.177Z,64.64
2018-01-04T00:29:46.454Z,63.97
2018-01-04T00:32:14.366Z,64.06
2018-01-04T00:34:41.955Z,63.32
2018-01-04T00:37:09.528Z,61.87
2018-01-04T00:39:37.306Z,62.41
2018-01-04T00:42:04.939Z,62.47
2018-01-04T00:44:32.698Z,62.75
2018-01-04T00:47:00.474Z,62.29
2018-01-04T00:49:28.102Z,61.49
2018-01-04T00:51:56.133Z,61.49
2018-01-04T00:54:24.046Z,61.71
2018-01-04T00:56:51.670Z,64.16
2018-01-04T00:59:19.305Z,63.00
2018-01-04T01:01:46.872Z,64.27
2018-01-04T01:04:14.506Z,64.26
2018-01-04T01:06:42.130Z,64.84
2018-01-04T01:09:10.008Z,65.89
2018-01-04T01:11:37.657Z,65.78
2018-01-04T01:14:05.353Z,65.56
2018-01-04T01:16:33.160Z,65.23
2018-01-04T01:19:00.733Z,65.38
2018-01-04T01:21:33.660Z,65.01
2018-01-04T01:24:01.305Z,65.07
2018-01-04T01:26:28.877Z,65.73
2018-01-04T01:28:56.489Z,65.85
2018-01-04T01:31:24.214Z,66.20
2018-01-04T01:33:52.727Z,65.93
2018-01-04T01:36:20.394Z,66.07
2018-01-04T01:38:47.988Z,66.39
2018-01-04T01:41:15.668Z,66.30
2018-01-04T01:43:43.460Z,67.01
2018-01-04T01:46:11.059Z,67.12
2018-01-04T01:48:39.336Z,67.14
2018-01-04T01:51:06.970Z,67.43
2018-01-04T01:53:34.758Z,66.86
2018-01-04T01:56:02.588Z,67.21
2018-01-04T01:58:30.282Z,66.11
2018-01-04T02:00:57.936Z,67.50
2018-01-04T02:03:25.577Z,67.44
2018-01-04T02:05:53.226Z,68.12
2018-01-04T02:08:20.856Z,68.20
2018-01-04T02:10:48.473Z,68.88
2018-01-04T02:13:16.230Z,68.92
2018-01-04T02:15:44.030Z,68.20
2018-01-04T02:18:23.558Z,68.71
2018-01-04T02:21:02.733Z,68.08
2018-01-04T02:23:42.056Z,68.33
2018-01-04T02:26:09.744Z,68.66
2018-01-04T02:28:49.095Z,68.68
2018-01-04T02:31:28.663Z,68.88
2018-01-04T02:34:08.067Z,69.93
2018-01-04T02:36:47.468Z,71.21
2018-01-04T02:39:26.718Z,69.68
2018-01-04T02:42:06.209Z,68.93
2018-01-04T02:44:43.466Z,68.50
2018-01-04T02:47:11.154Z,71.26
2018-01-04T02:49:38.818Z,70.85
2018-01-04T02:52:06.392Z,70.03
2018-01-04T02:54:33.988Z,72.38
2018-01-04T02:57:01.630Z,73.11
2018-01-04T02:59:29.222Z,72.19
2018-01-04T03:01:57.689Z,72.21
2018-01-04T03:04:25.294Z,71.93
2018-01-04T03:06:53.068Z,72.68
2018-01-04T03:09:20.728Z,72.50
2018-01-04T03:11:49.133Z,71.21
2018-01-04T03:14:17.360Z,70.52
2018-01-04T03:16:45.613Z,71.80
2018-01-04T03:19:13.295Z,70.63
2018-01-04T03:21:48.129Z,70.36
2018-01-04T03:24:16.064Z,70.08
2018-01-04T03:26:49.251Z,70.14
2018-01-04T03:29:33.251Z,70.29
2018-01-04T03:35:18.872Z,68.88
2018-01-04T03:37:51.961Z,69.49
2018-01-04T03:40:25.109Z,69.51
2018-01-04T03:46:02.978Z,70.35
2018-01-04T03:48:30.606Z,71.18
2018-01-04T03:51:03.860Z,69.40
2018-01-04T03:53:36.941Z,69.19
2018-01-04T03:56:10.024Z,72.36
2018-01-04T03:58:43.321Z,73.33
2018-01-04T04:01:16.458Z,72.47
2018-01-04T04:03:44.089Z,71.86
2018-01-04T04:06:17.911Z,72.34
2018-01-04T04:08:45.497Z,72.11
2018-01-04T04:11:13.335Z,71.24
2018-01-04T04:13:41.184Z,71.65
2018-01-04T04:16:08.810Z,69.81
2018-01-04T04:18:36.392Z,70.34
2018-01-04T04:21:04.055Z,71.28
2018-01-04T04:23:32.463Z,71.79
2018-01-04T04:26:00.075Z,72.47
2018-01-04T04:28:27.700Z,73.23
2018-01-04T04:30:55.271Z,73.42
2018-01-04T04:33:23.082Z,72.46
2018-01-04T04:35:50.723Z,72.56
2018-01-04T04:38:18.348Z,72.29
2018-01-04T04:40:46.159Z,74.72
2018-01-04T04:43:13.783Z,75.75
2018-01-04T04:45:41.982Z,74.86
2018-01-04T04:48:10.392Z,73.95
2018-01-04T04:50:38.034Z,75.56
2018-01-04T04:53:05.699Z,72.56
2018-01-04T04:55:33.399Z,72.03
2018-01-04T04:58:00.968Z,71.40
2018-01-04T05:00:28.604Z,71.27
2018-01-04T05:02:56.195Z,70.77
2018-01-04T05:05:23.851Z,71.72
2018-01-04T05:07:51.480Z,72.87
2018-01-04T05:10:19.384Z,73.81
2018-01-04T05:12:47.106Z,73.17
2018-01-04T05:15:14.823Z,73.71
2018-01-04T05:17:42.542Z,73.33
2018-01-04T05:20:10.178Z,72.87
2018-01-04T05:22:37.877Z,75.98
2018-01-04T05:25:05.776Z,86.17
2018-01-04T05:27:33.343Z,83.99
2018-01-04T05:30:00.922Z,73.36
2018-01-04T05:32:28.546Z,72.92
2018-01-04T05:34:56.399Z,72.81
2018-01-04T05:37:23.985Z,74.42
2018-01-04T05:39:51.619Z,71.69
2018-01-04T05:42:19.271Z,71.17
2018-01-04T05:44:46.927Z,71.48
2018-01-04T05:47:14.611Z,71.10
2018-01-04T05:49:42.429Z,72.29
2018-01-04T05:52:10.288Z,72.76
2018-01-04T05:54:38.422Z,73.38
2018-01-04T05:57:07.596Z,73.91
2018-01-04T05:59:35.426Z,72.21
2018-01-04T06:02:03.101Z,73.40
2018-01-04T06:04:31.181Z,73.35
2018-01-04T06:06:58.787Z,72.96
2018-01-04T06:09:26.357Z,72.68
2018-01-04T06:11:54.244Z,72.63
2018-01-04T06:14:23.605Z,71.14
2018-01-04T06:16:51.396Z,73.11
2018-01-04T06:19:19.442Z,73.92
2018-01-04T06:21:48.873Z,74.07
2018-01-04T06:24:17.485Z,73.26
2018-01-04T06:26:45.351Z,74.81
2018-01-04T06:29:13.314Z,73.43
2018-01-04T06:31:41.174Z,73.93
2018-01-04T06:34:09.046Z,73.69
2018-01-04T06:36:38.323Z,72.50
2018-01-04T06:39:05.986Z,72.40
2018-01-04T06:41:33.822Z,72.86
2018-01-04T06:44:02.511Z,75.08
2018-01-04T06:46:31.011Z,73.01
2018-01-04T06:48:58.716Z,73.02
2018-01-04T06:51:26.282Z,72.49
2018-01-04T06:53:54.045Z,72.38
2018-01-04T06:56:26.036Z,72.20
2018-01-04T06:58:54.140Z,73.08
2018-01-04T07:01:22.468Z,72.08
2018-01-04T07:03:50.132Z,71.12
2018-01-04T07:06:18.122Z,71.52
2018-01-04T07:08:45.908Z,71.47
2018-01-04T07:11:13.960Z,71.33
2018-01-04T07:13:41.575Z,71.88
2018-01-04T07:16:10.013Z,73.35
2018-01-04T07:18:38.062Z,72.39
2018-01-04T07:21:06.045Z,71.85
2018-01-04T07:23:33.957Z,72.19
2018-01-04T07:26:01.745Z,72.08
2018-01-04T07:28:30.255Z,72.51
2018-01-04T07:30:58.145Z,73.75
2018-01-04T07:33:25.993Z,73.96
2018-01-04T07:35:53.589Z,72.51
2018-01-04T07:38:21.419Z,72.76
2018-01-04T07:40:49.128Z,73.28
2018-01-04T07:43:17.392Z,73.20
2018-01-04T07:45:45.196Z,73.43
2018-01-04T07:48:13.127Z,73.08
2018-01-04T07:50:41.654Z,73.41
2018-01-04T07:53:09.324Z,73.02
2018-01-04T07:55:37.080Z,73.47
2018-01-04T07:58:04.789Z,72.36
2018-01-04T08:00:32.615Z,73.04
2018-01-04T08:03:00.453Z,73.88
2018-01-04T08:05:28.398Z,72.55
2018-01-04T08:07:56.259Z,72.12
2018-01-04T08:10:24.209Z,71.54
2018-01-04T08:12:52.004Z,70.40
2018-01-04T08:15:19.820Z,72.44
2018-01-04T08:17:48.114Z,70.26
2018-01-04T08:20:15.683Z,70.79
2018-01-04T08:22:43.345Z,70.11
2018-01-04T08:25:11.532Z,68.91
2018-01-04T08:27:39.146Z,70.06
2018-01-04T08:30:08.257Z,69.00
2018-01-04T08:32:36.668Z,69.11
2018-01-04T08:35:04.258Z,68.66
2018-01-04T08:37:31.903Z,68.76
2018-01-04T08:39:59.435Z,69.27
2018-01-04T08:42:26.989Z,68.78
2018-01-04T08:44:54.624Z,70.08
2018-01-04T08:47:22.736Z,69.53
2018-01-04T08:49:50.295Z,69.71
2018-01-04T08:52:17.871Z,69.67
2018-01-04T08:54:45.420Z,69.04
2018-01-04T08:57:13.023Z,69.25
2018-01-04T08:59:40.678Z,69.74
2018-01-04T09:02:08.346Z,69.51
2018-01-04T09:04:36.250Z,69.81
2018-01-04T09:07:03.901Z,69.51
2018-01-04T09:09:31.735Z,69.42
2018-01-04T09:11:59.354Z,69.58
2018-01-04T09:14:26.927Z,69.29
2018-01-04T09:16:54.644Z,69.85
2018-01-04T09:19:22.429Z,70.19
2018-01-04T09:21:50.182Z,70.14
2018-01-04T09:24:18.555Z,69.83
2018-01-04T09:26:46.696Z,69.57
2018-01-04T09:29:15.095Z,69.65
2018-01-04T09:31:42.702Z,70.10
2018-01-04T09:34:10.991Z,70.28
2018-01-04T09:36:38.926Z,70.37
2018-01-04T09:39:06.505Z,69.41
2018-01-04T09:41:34.322Z,69.38
2018-01-04T09:44:02.669Z,69.11
2018-01-04T09:46:30.298Z,68.44
2018-01-04T09:48:57.847Z,67.84
2018-01-04T09:51:26.504Z,66.67
2018-01-04T09:53:54.320Z,66.24
2018-01-04T09:56:21.846Z,65.49
2018-01-04T09:58:49.477Z,63.99
2018-01-04T10:01:17.783Z,63.76
2018-01-04T10:03:45.415Z,63.34
2018-01-04T10:06:13.884Z,62.65
2018-01-04T10:08:41.508Z,62.81
2018-01-04T10:11:09.151Z,63.23
2018-01-04T10:13:36.761Z,63.41
2018-01-04T10:16:04.342Z,64.42
2018-01-04T10:18:32.188Z,64.30
2018-01-04T10:21:00.678Z,64.30
2018-01-04T10:23:28.328Z,64.08
2018-01-04T10:25:56.033Z,65.07
2018-01-04T10:28:23.749Z,64.76
2018-01-04T10:30:51.805Z,64.56
2018-01-04T10:33:20.400Z,64.87
2018-01-04T10:35:48.072Z,65.11
2018-01-04T10:38:15.686Z,65.19
2018-01-04T10:40:44.210Z,65.76
2018-01-04T10:43:12.000Z,65.88
2018-01-04T10:45:39.658Z,65.79
2018-01-04T10:48:08.030Z,66.14
2018-01-04T10:50:36.026Z,65.13
2018-01-04T10:53:04.986Z,66.14
2018-01-04T10:55:32.699Z,65.99
2018-01-04T10:58:00.622Z,66.22
2018-01-04T11:00:29.119Z,66.44
2018-01-04T11:02:58.522Z,66.76
2018-01-04T11:05:27.020Z,66.94
2018-01-04T11:07:54.696Z,66.76
2018-01-04T11:10:22.365Z,66.57
2018-01-04T11:12:50.129Z,66.87
2018-01-04T11:15:18.642Z,67.36
2018-01-04T11:17:46.501Z,66.58
2018-01-04T11:20:14.154Z,67.24
2018-01-04T11:22:41.825Z,66.67
2018-01-04T11:25:10.446Z,66.66
2018-01-04T11:27:38.104Z,66.47
2018-01-04T11:30:08.275Z,66.50
2018-01-04T11:32:35.912Z,67.00
2018-01-04T11:35:04.708Z,66.06
2018-01-04T11:37:33.486Z,66.69
2018-01-04T11:40:01.109Z,66.41
2018-01-04T11:42:28.884Z,66.34
2018-01-04T11:44:57.694Z,66.97
2018-01-04T11:47:25.490Z,66.38
2018-01-04T11:49:53.798Z,66.50
2018-01-04T11:52:21.681Z,66.41
2018-01-04T11:54:49.351Z,66.14
2018-01-04T11:57:16.937Z,66.35
2018-01-04T11:59:44.798Z,66.14
2018-01-04T12:02:12.432Z,65.93
2018-01-04T12:04:40.028Z,66.80
2018-01-04T12:07:07.645Z,67.16
2018-01-04T12:09:36.075Z,66.61
2018-01-04T12:12:03.696Z,66.19
2018-01-04T12:14:31.309Z,67.19
2018-01-04T12:16:58.968Z,66.87
2018-01-04T12:19:26.570Z,66.81
2018-01-04T12:21:56.197Z,67.11
2018-01-04T12:24:23.827Z,67.20
2018-01-04T12:26:51.501Z,67.30
2018-01-04T12:29:19.916Z,68.03
2018-01-04T12:31:47.747Z,67.97
2018-01-04T12:34:15.349Z,68.85
2018-01-04T12:36:43.187Z,68.43
2018-01-04T12:39:10.803Z,68.30
2018-01-04T12:41:40.902Z,68.57
2018-01-04T12:44:08.535Z,68.16
2018-01-04T12:46:36.217Z,68.07
2018-01-04T12:49:03.834Z,67.83
2018-01-04T12:51:31.931Z,68.64
2018-01-04T12:54:00.265Z,68.59
2018-01-04T12:56:28.128Z,68.24
2018-01-04T12:58:55.948Z,68.43
2018-01-04T13:01:24.298Z,67.87
2018-01-04T13:03:52.103Z,68.05
2018-01-04T13:06:19.754Z,67.71
2018-01-04T13:08:47.369Z,68.36
2018-01-04T13:11:15.366Z,68.30
2018-01-04T13:13:43.298Z,68.35
2018-01-04T13:16:11.605Z,68.03
2018-01-04T13:18:39.167Z,67.77
2018-01-04T13:21:07.270Z,67.76
2018-01-04T13:23:35.234Z,67.38
2018-01-04T13:26:03.527Z,68.15
2018-01-04T13:28:31.186Z,67.91
2018-01-04T13:30:59.541Z,67.72
2018-01-04T13:33:30.751Z,67.72
2018-01-04T13:35:58.307Z,67.55
2018-01-04T13:38:26.152Z,67.86
2018-01-04T13:40:57.313Z,67.59
2018-01-04T13:43:24.952Z,68.12
2018-01-04T13:45:52.607Z,68.04
2018-01-04T13:48:20.402Z,67.92
2018-01-04T13:50:47.957Z,68.24
2018-01-04T13:53:15.629Z,68.01
2018-01-04T13:55:43.466Z,67.10
2018-01-04T13:58:11.087Z,67.56
2018-01-04T14:00:38.972Z,67.33
2018-01-04T14:03:06.793Z,67.38
2018-01-04T14:05:34.458Z,67.94
2018-01-04T14:08:02.092Z,67.01
2018-01-04T14:10:29.742Z,66.89
2018-01-04T14:12:57.564Z,66.76
2018-01-04T14:15:26.156Z,73.18
2018-01-04T14:17:57.253Z,65.83
2018-01-04T14:20:24.883Z,64.68
2018-01-04T14:46:59.613Z,65.95
2018-01-04T14:49:27.447Z,65.86
2018-01-04T14:51:55.058Z,65.50
2018-01-04T14:54:23.628Z,65.92
2018-01-04T14:56:51.347Z,65.83
2018-01-04T14:59:18.971Z,65.73
2018-01-04T15:01:46.596Z,66.11
2018-01-04T15:04:14.189Z,66.14
2018-01-04T15:06:41.976Z,65.75
2018-01-04T15:09:09.758Z,65.84
2018-01-04T15:11:37.410Z,66.22
2018-01-04T15:14:05.102Z,66.70
2018-01-04T15:16:33.046Z,66.05
2018-01-04T15:19:01.502Z,66.06
2018-01-04T15:21:29.227Z,66.13
2018-01-04T15:23:57.237Z,66.60
2018-01-04T15:26:24.915Z,67.49
2018-01-04T15:28:52.575Z,66.82
2018-01-04T15:31:20.344Z,67.55
2018-01-04T15:33:48.139Z,67.27
2018-01-04T15:36:15.735Z,67.57
2018-01-04T15:38:43.338Z,67.53
2018-01-04T15:41:11.110Z,66.86
2018-01-04T15:43:38.750Z,66.75
2018-01-04T15:46:07.568Z,67.47
2018-01-04T15:48:35.662Z,67.57
2018-01-04T15:51:04.236Z,67.43
2018-01-04T15:53:31.905Z,68.75
2018-01-04T15:55:59.557Z,67.84
2018-01-04T15:58:27.291Z,67.56
2018-01-04T16:00:54.948Z,67.64
2018-01-04T16:03:22.652Z,67.62
2018-01-04T16:05:50.279Z,67.73
2018-01-04T16:08:18.617Z,67.91
2018-01-04T16:10:46.292Z,68.07
2018-01-04T16:13:13.966Z,68.21
2018-01-04T16:15:41.707Z,68.61
2018-01-04T16:18:09.373Z,68.74
2018-01-04T16:20:37.259Z,69.23
2018-01-04T16:23:04.981Z,68.96
2018-01-04T16:25:33.131Z,68.81
2018-01-04T16:28:00.755Z,68.66
2018-01-04T16:30:28.484Z,68.07
2018-01-04T16:32:56.164Z,67.92
2018-01-04T16:35:23.933Z,67.78
2018-01-04T16:37:52.500Z,67.63
2018-01-04T16:40:20.108Z,67.17
2018-01-04T16:42:47.708Z,67.00
2018-01-04T16:45:24.107Z,66.73
2018-01-04T16:47:51.989Z,66.72
2018-01-04T16:50:19.748Z,66.45
2018-01-04T16:52:47.603Z,66.53
2018-01-04T16:55:15.365Z,66.79
2018-01-04T16:57:43.001Z,66.88
2018-01-04T17:00:11.481Z,66.60
2018-01-04T17:02:39.129Z,66.59
2018-01-04T17:05:06.725Z,66.72
2018-01-04T17:07:34.391Z,66.76
2018-01-04T17:10:02.805Z,66.71
2018-01-04T17:12:30.498Z,66.86
2018-01-04T17:14:58.206Z,67.18
2018-01-04T17:17:25.838Z,67.05
2018-01-04T17:19:53.468Z,66.96
2018-01-04T17:22:21.174Z,66.52
2018-01-04T17:24:49.164Z,66.40
2018-01-04T17:27:16.832Z,66.44
2018-01-04T17:29:45.370Z,66.41
2018-01-04T17:32:13.050Z,66.54
2018-01-04T17:34:40.690Z,66.49
2018-01-04T17:37:09.247Z,66.23
2018-01-04T17:39:37.923Z,66.63
2018-01-04T17:42:05.592Z,66.78
2018-01-04T17:44:33.287Z,66.43
2018-01-04T17:47:01.360Z,66.33
2018-01-04T17:49:29.036Z,66.19
2018-01-04T17:51:56.701Z,65.99
2018-01-04T17:54:24.458Z,65.81
2018-01-04T17:56:55.102Z,66.19
2018-01-04T17:59:23.671Z,66.41
2018-01-04T18:01:51.569Z,66.28
2018-01-04T18:04:19.478Z,65.46
2018-01-04T18:06:47.819Z,66.84
2018-01-04T18:09:15.560Z,66.05
2018-01-04T18:11:45.284Z,66.00
2018-01-04T18:14:12.982Z,66.00
2018-01-04T18:16:40.934Z,66.02
2018-01-04T18:19:09.173Z,66.30
2018-01-04T18:21:36.784Z,65.04
2018-01-04T18:26:32.290Z,65.72
2018-01-04T18:29:00.313Z,65.15
2018-01-04T18:31:27.941Z,65.05
2018-01-04T18:33:55.820Z,65.21
2018-01-04T18:36:25.606Z,65.09
2018-01-04T18:38:53.424Z,64.85
2018-01-04T18:41:21.095Z,64.91
2018-01-04T18:43:48.836Z,64.77
2018-01-04T18:46:16.630Z,65.02
2018-01-04T18:48:44.291Z,64.84
2018-01-04T18:51:12.096Z,64.74
2018-01-04T18:53:39.846Z,64.27
2018-01-04T18:56:08.194Z,65.60
2018-01-04T18:58:35.882Z,65.82
2018-01-04T19:01:03.674Z,66.01
2018-01-04T19:03:31.293Z,66.28
2018-01-04T19:05:58.951Z,65.09
2018-01-04T19:08:26.728Z,65.71
2018-01-04T19:10:54.373Z,65.51
2018-01-04T19:13:22.708Z,66.63
2018-01-04T19:15:50.584Z,66.44
2018-01-04T19:18:18.652Z,65.89
2018-01-04T19:20:46.435Z,65.89
2018-01-04T19:23:14.170Z,66.21
2018-01-04T19:25:41.837Z,65.18
2018-01-04T19:28:09.781Z,65.83
2018-01-04T19:30:39.114Z,66.88
2018-01-04T19:33:07.722Z,65.44
2018-01-04T19:35:35.532Z,65.52
2018-01-04T19:38:03.136Z,66.15
2018-01-04T19:40:30.916Z,65.36
2018-01-04T19:42:59.570Z,66.27
2018-01-04T19:45:27.200Z,68.39
2018-01-04T19:47:54.822Z,67.87
2018-01-04T19:50:22.541Z,67.67
2018-01-04T19:52:51.188Z,67.87
2018-01-04T19:55:18.995Z,67.53
2018-01-04T19:57:48.162Z,66.92
2018-01-04T20:00:20.636Z,67.38
2018-01-04T20:02:48.913Z,67.60
2018-01-04T20:05:17.817Z,66.02
2018-01-04T20:07:45.866Z,66.72
2018-01-04T20:10:13.726Z,66.98
2018-01-04T20:12:43.534Z,66.51
2018-01-04T20:15:11.278Z,66.96
2018-01-04T20:17:40.056Z,68.33
2018-01-04T20:22:41.374Z,67.15
2018-01-04T20:25:09.110Z,66.80
2018-01-04T20:35:53.702Z,69.25
2018-01-04T20:38:21.379Z,69.33
2018-01-04T20:40:49.041Z,70.61
2018-01-04T20:43:16.708Z,71.23
2018-01-04T20:45:44.498Z,70.93
2018-01-04T20:48:12.459Z,71.47
2018-01-04T20:50:41.215Z,70.73
2018-01-04T20:53:09.831Z,71.38
2018-01-04T20:55:39.098Z,71.79
2018-01-04T20:58:07.102Z,71.78
2018-01-04T21:00:37.372Z,70.26
2018-01-04T21:03:05.783Z,70.37
2018-01-04T21:05:33.435Z,68.89
2018-01-04T21:08:01.373Z,68.90
2018-01-04T21:10:29.022Z,69.03
2018-01-04T21:12:56.833Z,69.43
2018-01-04T21:15:24.814Z,70.59
2018-01-04T21:17:53.468Z,69.71
2018-01-04T21:20:21.381Z,68.37
2018-01-04T21:22:49.115Z,67.95
2018-01-04T21:25:17.011Z,69.46
2018-01-04T21:27:44.820Z,70.04
2018-01-04T21:30:12.546Z,71.05
2018-01-04T21:32:40.314Z,69.74
2018-01-04T21:35:09.464Z,70.82
2018-01-04T21:37:37.170Z,69.07
2018-01-04T21:40:04.936Z,70.06
2018-01-04T21:42:32.653Z,69.91
2018-01-04T21:45:01.096Z,69.97
2018-01-04T21:47:28.889Z,69.79
2018-01-04T21:49:56.586Z,70.36
2018-01-04T21:52:24.250Z,68.96
2018-01-04T21:54:52.640Z,70.41
2018-01-04T21:57:20.614Z,72.22
2018-01-04T21:59:48.464Z,72.58
2018-01-04T22:02:16.170Z,73.51
2018-01-04T22:04:43.844Z,72.86
2018-01-04T22:07:11.806Z,71.50
2018-01-04T22:09:39.755Z,71.86
2018-01-04T22:12:07.635Z,72.52
2018-01-04T22:14:36.065Z,74.57
2018-01-04T22:17:03.751Z,74.31
2018-01-04T22:19:31.356Z,73.36
2018-01-04T22:21:59.029Z,73.11
2018-01-04T22:24:26.752Z,72.62
2018-01-04T22:26:54.395Z,73.88
2018-01-04T22:29:22.047Z,72.63
2018-01-04T22:31:49.717Z,73.19
2018-01-04T22:34:17.336Z,72.66
2018-01-04T22:36:44.905Z,72.17
2018-01-04T22:39:14.338Z,72.33
2018-01-04T22:41:42.724Z,72.42
2018-01-04T22:44:10.373Z,71.17
2018-01-04T22:46:37.979Z,70.17
2018-01-04T22:49:05.662Z,71.60
2018-01-04T22:51:33.255Z,71.06
2018-01-04T22:54:00.956Z,71.53
2018-01-04T22:56:28.572Z,72.13
2018-01-04T22:58:56.139Z,71.23
2018-01-04T23:01:24.042Z,71.62
2018-01-04T23:03:51.863Z,72.36
2018-01-04T23:06:19.651Z,72.35
2018-01-04T23:08:47.252Z,72.59
2018-01-04T23:11:15.362Z,73.02
2018-01-04T23:13:43.010Z,73.60
2018-01-04T23:16:10.933Z,72.07
2018-01-04T23:18:53.317Z,72.29
2018-01-04T23:21:21.674Z,72.04
2018-01-04T23:23:49.476Z,71.71
2018-01-04T23:26:17.114Z,72.12
2018-01-04T23:28:44.827Z,71.81
2018-01-04T23:31:12.436Z,71.22
2018-01-04T23:33:40.061Z,71.40
2018-01-04T23:36:08.824Z,72.14
2018-01-04T23:38:37.485Z,70.53
2018-01-04T23:41:06.508Z,71.06
2018-01-04T23:43:35.250Z,70.26
2018-01-04T23:46:02.917Z,70.02
2018-01-04T23:48:31.234Z,68.05
2018-01-04T23:50:58.910Z,69.28
2018-01-04T23:53:26.772Z,71.42
2018-01-04T23:55:54.428Z,70.55
2018-01-04T23:58:23.837Z,74.33
